createdAt,value
2019-01-08T00:01:13.398Z,3.97
2019-01-08T00:03:42.161Z,4.87
2019-01-08T00:06:11.249Z,2.23
2019-01-08T00:08:40.013Z,2.57
2019-01-08T00:11:08.798Z,4.63
2019-01-08T00:13:37.585Z,4.27
2019-01-08T00:16:06.433Z,4.07
2019-01-08T00:18:35.208Z,5.03
2019-01-08T00:21:04.355Z,3.77
2019-01-08T00:23:33.143Z,1.10
2019-01-08T00:26:02.285Z,1.53
2019-01-08T00:28:31.081Z,2.83
2019-01-08T00:30:59.918Z,5.90
2019-01-08T00:33:28.710Z,1.70
2019-01-08T00:35:57.725Z,0.93
2019-01-08T00:38:26.574Z,2.03
2019-01-08T00:40:55.346Z,1.23
2019-01-08T00:43:24.113Z,0.70
2019-01-08T00:45:53.049Z,0.83
2019-01-08T00:48:21.841Z,0.90
2019-01-08T00:50:50.626Z,0.80
2019-01-08T00:53:19.485Z,3.40
2019-01-08T00:55:48.245Z,0.93
2019-01-08T00:58:17.040Z,0.93
2019-01-08T01:00:45.824Z,1.87
2019-01-08T01:03:14.611Z,1.97
2019-01-08T01:05:43.386Z,2.40
2019-01-08T01:08:12.180Z,3.93
2019-01-08T01:10:40.968Z,4.77
2019-01-08T01:13:09.728Z,3.03
2019-01-08T01:15:38.512Z,4.90
2019-01-08T01:18:07.278Z,7.17
2019-01-08T01:20:36.175Z,4.60
2019-01-08T01:23:05.005Z,4.70
2019-01-08T01:25:33.782Z,4.23
2019-01-08T01:28:02.618Z,3.13
2019-01-08T01:30:31.745Z,3.27
2019-01-08T01:33:00.516Z,5.50
2019-01-08T01:35:29.300Z,6.17
2019-01-08T01:37:58.382Z,5.33
2019-01-08T01:40:27.168Z,7.67
2019-01-08T01:42:55.938Z,9.27
2019-01-08T01:45:24.705Z,7.03
2019-01-08T01:47:53.549Z,5.30
2019-01-08T01:50:22.341Z,6.53
2019-01-08T01:52:51.450Z,7.53
2019-01-08T01:55:20.525Z,10.27
2019-01-08T01:57:50.035Z,7.43
2019-01-08T02:00:18.933Z,7.90
2019-01-08T02:02:47.709Z,5.30
2019-01-08T02:05:16.637Z,9.90
2019-01-08T02:07:45.421Z,6.43
2019-01-08T02:10:14.190Z,12.53
2019-01-08T02:12:43.037Z,8.17
2019-01-08T02:15:11.877Z,8.27
2019-01-08T02:17:40.661Z,10.17
2019-01-08T02:20:09.510Z,9.30
2019-01-08T02:22:38.301Z,11.60
2019-01-08T02:25:07.213Z,13.93
2019-01-08T02:27:36.002Z,10.63
2019-01-08T02:30:05.581Z,12.27
2019-01-08T02:32:34.365Z,10.60
2019-01-08T02:35:04.018Z,17.50
2019-01-08T02:37:32.812Z,17.73
2019-01-08T02:40:01.895Z,16.23
2019-01-08T02:42:30.663Z,16.23
2019-01-08T02:44:59.446Z,17.87
2019-01-08T02:47:28.217Z,16.23
2019-01-08T02:49:57.102Z,17.40
2019-01-08T02:52:26.234Z,14.27
2019-01-08T02:54:55.018Z,14.43
2019-01-08T02:57:23.788Z,18.17
2019-01-08T02:59:52.582Z,15.30
2019-01-08T03:02:21.357Z,20.63
2019-01-08T03:04:51.944Z,21.97
2019-01-08T03:07:20.659Z,18.33
2019-01-08T03:09:49.437Z,16.57
2019-01-08T03:12:18.220Z,21.53
2019-01-08T03:14:46.989Z,18.90
2019-01-08T03:17:15.753Z,16.13
2019-01-08T03:19:44.541Z,18.30
2019-01-08T03:22:13.317Z,16.33
2019-01-08T03:24:42.110Z,22.43
2019-01-08T03:27:10.887Z,23.27
2019-01-08T03:29:39.662Z,16.17
2019-01-08T03:32:08.503Z,16.80
2019-01-08T03:34:37.315Z,16.50
2019-01-08T03:37:06.195Z,19.17
2019-01-08T03:39:34.968Z,16.47
2019-01-08T03:42:03.801Z,25.03
2019-01-08T03:44:32.585Z,20.43
2019-01-08T03:47:01.448Z,19.53
2019-01-08T03:49:30.239Z,20.70
2019-01-08T03:51:59.005Z,18.50
2019-01-08T03:54:27.930Z,16.07
2019-01-08T03:56:56.888Z,26.33
2019-01-08T03:59:25.947Z,14.70
2019-01-08T04:01:54.737Z,18.27
2019-01-08T04:04:23.501Z,20.87
2019-01-08T04:06:52.284Z,21.40
2019-01-08T04:09:21.134Z,12.83
2019-01-08T04:11:49.935Z,13.77
2019-01-08T04:14:18.738Z,19.40
2019-01-08T04:16:47.579Z,22.43
2019-01-08T04:19:16.357Z,16.10
2019-01-08T04:21:45.135Z,22.30
2019-01-08T04:24:13.915Z,18.43
2019-01-08T04:26:42.782Z,21.13
2019-01-08T04:29:11.558Z,20.53
2019-01-08T04:31:40.346Z,20.87
2019-01-08T04:34:09.122Z,17.37
2019-01-08T04:36:37.903Z,18.70
2019-01-08T04:39:06.910Z,21.67
2019-01-08T04:41:35.702Z,19.63
2019-01-08T04:44:04.533Z,19.27
2019-01-08T04:46:33.320Z,14.40
2019-01-08T04:49:02.402Z,24.10
2019-01-08T04:51:31.225Z,20.00
2019-01-08T04:54:00.051Z,21.50
2019-01-08T04:56:28.886Z,18.23
2019-01-08T04:58:57.719Z,18.90
2019-01-08T05:01:26.838Z,15.20
2019-01-08T05:03:55.601Z,20.07
2019-01-08T05:06:24.453Z,21.57
2019-01-08T05:08:53.217Z,16.57
2019-01-08T05:11:21.994Z,20.53
2019-01-08T05:13:50.894Z,18.57
2019-01-08T05:16:19.718Z,16.70
2019-01-08T05:18:48.795Z,21.50
2019-01-08T05:21:17.582Z,16.20
2019-01-08T05:23:46.345Z,19.40
2019-01-08T05:26:15.555Z,18.60
2019-01-08T05:28:44.313Z,17.33
2019-01-08T05:31:13.333Z,17.67
2019-01-08T05:33:42.109Z,19.07
2019-01-08T05:36:11.135Z,21.33
2019-01-08T05:38:39.915Z,26.30
2019-01-08T05:41:08.698Z,20.10
2019-01-08T05:43:37.507Z,60.27
2019-01-08T05:46:06.366Z,22.83
2019-01-08T05:48:35.414Z,18.47
2019-01-08T05:51:04.214Z,22.67
2019-01-08T05:53:33.524Z,19.37
2019-01-08T05:56:02.413Z,20.77
2019-01-08T05:58:31.193Z,25.87
2019-01-08T06:00:59.961Z,21.13
2019-01-08T06:03:28.754Z,18.63
2019-01-08T06:05:57.631Z,19.00
2019-01-08T06:08:26.418Z,17.57
2019-01-08T06:10:55.478Z,16.47
2019-01-08T06:13:24.261Z,24.43
2019-01-08T06:15:53.034Z,21.67
2019-01-08T06:18:22.451Z,22.67
2019-01-08T06:20:51.591Z,26.40
2019-01-08T06:23:20.374Z,26.37
2019-01-08T06:25:49.166Z,20.20
2019-01-08T06:28:17.982Z,18.83
2019-01-08T06:30:46.825Z,20.97
2019-01-08T06:33:15.685Z,30.00
2019-01-08T06:35:44.593Z,19.93
2019-01-08T06:38:15.302Z,32.47
2019-01-08T06:40:44.958Z,21.80
2019-01-08T06:43:13.805Z,23.53
2019-01-08T06:45:42.790Z,28.63
2019-01-08T06:48:11.605Z,28.00
2019-01-08T06:50:40.506Z,31.83
2019-01-08T06:53:09.417Z,23.43
2019-01-08T06:55:38.517Z,34.13
2019-01-08T06:58:07.383Z,21.73
2019-01-08T07:00:36.344Z,19.90
2019-01-08T07:03:05.404Z,24.07
2019-01-08T07:05:34.265Z,26.30
2019-01-08T07:08:03.223Z,18.20
2019-01-08T07:10:32.085Z,26.40
2019-01-08T07:13:00.899Z,27.73
2019-01-08T07:15:29.853Z,21.80
2019-01-08T07:17:58.864Z,19.70
2019-01-08T07:20:27.776Z,17.90
2019-01-08T07:22:56.632Z,18.30
2019-01-08T07:25:25.446Z,14.27
2019-01-08T07:27:54.554Z,15.63
2019-01-08T07:30:23.464Z,10.50
2019-01-08T07:32:52.346Z,17.53
2019-01-08T07:35:21.286Z,19.57
2019-01-08T07:37:50.243Z,18.83
2019-01-08T07:40:19.104Z,23.23
2019-01-08T07:42:47.984Z,19.03
2019-01-08T07:45:16.978Z,12.43
2019-01-08T07:47:45.933Z,19.40
2019-01-08T07:50:14.945Z,18.27
2019-01-08T07:52:43.773Z,21.23
2019-01-08T07:55:12.712Z,17.23
2019-01-08T07:57:41.622Z,16.57
2019-01-08T08:00:10.685Z,14.03
2019-01-08T08:02:39.589Z,10.27
2019-01-08T08:05:08.518Z,7.67
2019-01-08T08:07:37.391Z,11.63
2019-01-08T08:10:07.584Z,4.90
2019-01-08T08:12:36.373Z,6.93
2019-01-08T08:15:05.449Z,3.37
2019-01-08T08:17:34.313Z,6.90
2019-01-08T08:20:03.246Z,4.93
2019-01-08T08:22:32.029Z,8.57
2019-01-08T08:25:00.800Z,4.73
2019-01-08T08:27:29.578Z,6.93
2019-01-08T08:29:58.357Z,4.60
2019-01-08T08:32:27.146Z,9.73
2019-01-08T08:34:55.986Z,11.33
2019-01-08T08:37:24.838Z,13.70
2019-01-08T08:39:53.610Z,11.67
2019-01-08T08:42:22.387Z,10.67
2019-01-08T08:44:51.180Z,14.37
2019-01-08T08:47:20.298Z,7.23
2019-01-08T08:49:49.118Z,11.43
2019-01-08T08:52:17.960Z,9.93
2019-01-08T08:54:46.745Z,18.17
2019-01-08T08:57:15.514Z,14.80
2019-01-08T08:59:44.649Z,18.87
2019-01-08T09:02:13.520Z,18.17
2019-01-08T09:04:42.316Z,19.43
2019-01-08T09:07:11.094Z,15.10
2019-01-08T09:09:39.878Z,20.07
2019-01-08T09:12:08.692Z,19.10
2019-01-08T09:14:37.486Z,17.13
2019-01-08T09:17:06.257Z,16.60
2019-01-08T09:19:35.057Z,28.77
2019-01-08T09:22:04.158Z,21.00
2019-01-08T09:24:32.963Z,22.33
2019-01-08T09:27:01.746Z,31.63
2019-01-08T09:29:31.787Z,16.60
2019-01-08T09:32:00.669Z,23.17
2019-01-08T09:34:29.457Z,21.27
2019-01-08T09:36:58.233Z,25.80
2019-01-08T09:39:27.034Z,20.03
2019-01-08T09:41:55.900Z,20.60
2019-01-08T09:44:24.697Z,17.40
2019-01-08T09:46:53.458Z,20.97
2019-01-08T09:49:22.226Z,26.53
2019-01-08T09:51:51.021Z,18.30
2019-01-08T09:54:20.148Z,19.23
2019-01-08T09:56:49.010Z,16.80
2019-01-08T09:59:17.800Z,13.77
2019-01-08T10:01:46.578Z,11.63
2019-01-08T10:04:15.362Z,19.13
2019-01-08T10:06:44.121Z,13.67
2019-01-08T10:09:12.891Z,11.43
2019-01-08T10:11:41.798Z,11.67
2019-01-08T10:14:10.571Z,11.53
2019-01-08T10:16:39.352Z,9.27
2019-01-08T10:19:08.128Z,11.07
2019-01-08T10:21:36.974Z,12.07
2019-01-08T10:24:05.791Z,8.93
2019-01-08T10:26:34.905Z,13.73
2019-01-08T10:29:03.672Z,9.47
2019-01-08T10:31:32.932Z,12.43
2019-01-08T10:34:01.782Z,14.77
2019-01-08T10:36:30.873Z,12.17
2019-01-08T10:38:59.628Z,8.03
2019-01-08T10:41:28.701Z,9.03
2019-01-08T10:43:57.482Z,12.27
2019-01-08T10:46:26.250Z,13.67
2019-01-08T10:48:55.325Z,9.60
2019-01-08T10:51:24.105Z,8.13
2019-01-08T10:53:52.890Z,11.33
2019-01-08T10:56:21.702Z,12.53
2019-01-08T10:58:50.448Z,14.60
2019-01-08T11:01:19.557Z,13.27
2019-01-08T11:03:48.346Z,13.17
2019-01-08T11:06:17.103Z,7.97
2019-01-08T11:08:45.949Z,10.13
2019-01-08T11:11:14.709Z,9.33
2019-01-08T11:13:43.502Z,14.63
2019-01-08T11:16:12.271Z,10.07
2019-01-08T11:18:41.050Z,8.43
2019-01-08T11:21:10.270Z,7.80
2019-01-08T11:23:39.086Z,6.63
2019-01-08T11:26:07.943Z,8.00
2019-01-08T11:28:36.692Z,9.63
2019-01-08T11:31:05.473Z,12.17
2019-01-08T11:33:34.254Z,10.03
2019-01-08T11:36:03.035Z,10.83
2019-01-08T11:38:31.825Z,12.80
2019-01-08T11:41:00.938Z,7.90
2019-01-08T11:43:29.702Z,13.03
2019-01-08T11:45:58.723Z,9.97
2019-01-08T11:48:27.494Z,8.17
2019-01-08T11:50:56.288Z,23.07
2019-01-08T11:53:25.155Z,6.57
2019-01-08T11:55:53.930Z,9.37
2019-01-08T11:58:22.717Z,8.57
2019-01-08T12:00:51.512Z,7.70
2019-01-08T12:03:20.299Z,6.17
2019-01-08T12:05:49.082Z,4.87
2019-01-08T12:08:17.925Z,6.47
2019-01-08T12:10:46.713Z,5.87
2019-01-08T12:13:15.477Z,11.43
2019-01-08T12:15:44.549Z,7.67
2019-01-08T12:18:13.314Z,5.93
2019-01-08T12:20:42.158Z,5.80
2019-01-08T12:23:10.935Z,7.47
2019-01-08T12:25:39.706Z,8.07
2019-01-08T12:28:08.483Z,10.63
2019-01-08T12:30:37.250Z,13.53
2019-01-08T12:33:06.033Z,13.03
2019-01-08T12:35:34.881Z,18.30
2019-01-08T12:38:03.658Z,24.27
2019-01-08T12:40:32.435Z,14.53
2019-01-08T12:43:01.208Z,17.50
2019-01-08T12:45:29.976Z,15.70
2019-01-08T12:47:58.755Z,16.87
2019-01-08T12:50:27.546Z,18.50
2019-01-08T12:52:56.321Z,15.47
2019-01-08T12:55:25.449Z,18.83
2019-01-08T12:57:54.251Z,12.67
2019-01-08T13:00:23.024Z,14.07
2019-01-08T13:02:51.910Z,14.43
2019-01-08T13:05:20.709Z,20.60
2019-01-08T13:07:49.485Z,26.40
2019-01-08T13:10:18.496Z,19.37
2019-01-08T13:12:47.265Z,21.20
2019-01-08T13:15:16.146Z,27.83
2019-01-08T13:17:45.145Z,17.13
2019-01-08T13:20:13.938Z,20.13
2019-01-08T13:22:42.711Z,22.97
2019-01-08T13:25:11.516Z,18.60
2019-01-08T13:27:40.277Z,13.90
2019-01-08T13:30:09.709Z,16.57
2019-01-08T13:32:38.480Z,17.97
2019-01-08T13:35:07.407Z,23.37
2019-01-08T13:37:36.312Z,22.13
2019-01-08T13:40:05.414Z,26.73
2019-01-08T13:42:34.180Z,14.87
2019-01-08T13:45:03.472Z,25.90
2019-01-08T13:47:32.848Z,18.73
2019-01-08T13:50:01.658Z,21.80
2019-01-08T13:52:30.497Z,24.73
2019-01-08T13:55:01.188Z,24.17
2019-01-08T13:57:29.749Z,21.20
2019-01-08T13:59:58.837Z,20.03
2019-01-08T14:02:32.057Z,18.07
2019-01-08T14:04:58.981Z,14.93
2019-01-08T14:07:27.777Z,18.53
2019-01-08T14:09:56.629Z,18.53
2019-01-08T14:12:25.414Z,20.80
2019-01-08T14:14:54.429Z,28.53
2019-01-08T14:17:23.212Z,30.10
2019-01-08T14:19:52.046Z,20.63
2019-01-08T14:22:21.177Z,18.47
2019-01-08T14:24:49.962Z,21.03
2019-01-08T14:27:18.812Z,18.20
2019-01-08T14:29:47.586Z,20.77
2019-01-08T14:32:16.365Z,15.00
2019-01-08T14:34:45.186Z,25.40
2019-01-08T14:37:13.971Z,18.47
2019-01-08T14:39:42.751Z,12.17
2019-01-08T14:42:11.589Z,20.60
2019-01-08T14:44:40.631Z,16.33
2019-01-08T14:47:09.430Z,16.00
2019-01-08T14:49:38.272Z,20.43
2019-01-08T14:52:07.108Z,15.77
2019-01-08T14:54:35.974Z,16.93
2019-01-08T14:57:04.927Z,21.03
2019-01-08T14:59:33.704Z,18.00
2019-01-08T15:02:02.483Z,20.80
2019-01-08T15:04:31.250Z,19.23
2019-01-08T15:07:00.035Z,10.90
2019-01-08T15:09:28.817Z,14.70
2019-01-08T15:11:57.580Z,12.40
2019-01-08T15:14:26.362Z,11.87
2019-01-08T15:16:55.202Z,14.77
2019-01-08T15:19:24.021Z,18.60
2019-01-08T15:21:52.894Z,12.80
2019-01-08T15:24:21.993Z,15.47
2019-01-08T15:26:50.840Z,8.23
2019-01-08T15:29:19.629Z,10.43
2019-01-08T15:31:48.521Z,10.13
2019-01-08T15:34:17.287Z,17.53
2019-01-08T15:36:46.575Z,14.13
2019-01-08T15:39:15.350Z,13.93
2019-01-08T15:41:44.378Z,18.90
2019-01-08T15:44:15.439Z,15.20
2019-01-08T15:46:43.827Z,15.13
2019-01-08T15:49:12.619Z,18.40
2019-01-08T15:51:41.426Z,13.67
2019-01-08T15:54:10.504Z,14.23
2019-01-08T15:56:39.274Z,17.77
2019-01-08T15:59:08.306Z,17.50
2019-01-08T16:01:37.343Z,30.77
2019-01-08T16:04:06.377Z,27.33
2019-01-08T16:06:35.193Z,16.10
2019-01-08T16:09:04.902Z,17.30
2019-01-08T16:11:33.686Z,13.40
2019-01-08T16:14:02.548Z,19.00
2019-01-08T16:16:31.601Z,18.03
2019-01-08T16:19:00.685Z,11.30
2019-01-08T16:21:29.462Z,16.20
2019-01-08T16:23:58.250Z,11.87
2019-01-08T16:26:27.010Z,10.17
2019-01-08T16:28:55.794Z,9.90
2019-01-08T16:31:24.830Z,7.80
2019-01-08T16:33:53.617Z,11.93
2019-01-08T16:36:22.724Z,7.20
2019-01-08T16:38:51.522Z,12.23
2019-01-08T16:41:20.307Z,13.33
2019-01-08T16:43:49.623Z,13.27
2019-01-08T16:46:18.406Z,16.53
2019-01-08T16:48:47.209Z,16.30
2019-01-08T16:51:16.073Z,9.87
2019-01-08T16:53:44.910Z,14.37
2019-01-08T16:56:13.717Z,17.30
2019-01-08T16:58:42.481Z,20.90
2019-01-08T17:01:11.269Z,18.60
2019-01-08T17:03:40.047Z,17.00
2019-01-08T17:06:09.194Z,17.60
2019-01-08T17:08:37.966Z,24.53
2019-01-08T17:11:06.830Z,20.87
2019-01-08T17:13:35.599Z,24.10
2019-01-08T17:16:04.714Z,16.53
2019-01-08T17:18:33.557Z,24.17
2019-01-08T17:21:02.335Z,15.43
2019-01-08T17:23:31.135Z,18.00
2019-01-08T17:25:59.914Z,18.70
2019-01-08T17:28:29.001Z,17.50
2019-01-08T17:30:57.787Z,17.13
2019-01-08T17:33:33.804Z,19.07
2019-01-08T17:35:57.491Z,20.57
2019-01-08T17:38:26.333Z,23.73
2019-01-08T17:40:55.419Z,21.53
2019-01-08T17:43:33.083Z,25.20
2019-01-08T17:45:54.851Z,25.50
2019-01-08T17:48:23.872Z,15.70
2019-01-08T17:50:53.301Z,15.83
2019-01-08T17:53:22.182Z,12.33
2019-01-08T17:55:51.123Z,13.83
2019-01-08T17:58:39.910Z,11.57
2019-01-08T18:01:15.018Z,11.63
2019-01-08T18:03:43.792Z,9.40
2019-01-08T18:06:12.966Z,11.87
2019-01-08T18:08:42.380Z,10.90
2019-01-08T18:11:11.261Z,12.17
2019-01-08T18:13:40.071Z,15.23
2019-01-08T18:16:09.059Z,13.07
2019-01-08T18:18:37.906Z,17.93
2019-01-08T18:21:07.200Z,19.80
2019-01-08T18:23:36.104Z,16.37
2019-01-08T18:26:05.196Z,12.50
2019-01-08T18:28:34.062Z,13.70
2019-01-08T18:31:02.986Z,17.10
2019-01-08T18:33:31.750Z,19.13
2019-01-08T18:36:00.574Z,14.40
2019-01-08T18:38:29.413Z,21.60
2019-01-08T18:40:58.350Z,17.83
2019-01-08T18:43:27.196Z,22.40
2019-01-08T18:45:56.436Z,19.57
2019-01-08T18:48:25.655Z,16.37
2019-01-08T18:50:54.630Z,13.90
2019-01-08T18:53:23.414Z,17.50
2019-01-08T18:55:52.650Z,18.67
2019-01-08T18:58:21.547Z,27.47
2019-01-08T19:00:50.400Z,21.63
2019-01-08T19:03:19.300Z,19.87
2019-01-08T19:05:48.645Z,15.83
2019-01-08T19:08:17.534Z,18.73
2019-01-08T19:10:46.682Z,18.80
2019-01-08T19:13:16.110Z,11.83
2019-01-08T19:15:44.985Z,21.47
2019-01-08T19:18:14.182Z,16.13
2019-01-08T19:20:43.121Z,30.63
2019-01-08T19:23:11.980Z,19.43
2019-01-08T19:25:41.148Z,17.17
2019-01-08T19:28:09.961Z,22.97
2019-01-08T19:30:38.829Z,16.77
2019-01-08T19:33:07.642Z,21.33
2019-01-08T19:35:36.434Z,17.03
2019-01-08T19:38:05.284Z,15.47
2019-01-08T19:40:34.054Z,15.83
2019-01-08T19:43:02.838Z,12.17
2019-01-08T19:45:31.707Z,19.77
2019-01-08T19:48:00.488Z,13.47
2019-01-08T19:50:29.644Z,21.80
2019-01-08T19:52:58.430Z,17.83
2019-01-08T19:55:27.229Z,13.40
2019-01-08T19:57:56.014Z,7.23
2019-01-08T20:00:24.790Z,20.50
2019-01-08T20:02:53.613Z,11.73
2019-01-08T20:05:22.381Z,9.40
2019-01-08T20:07:51.166Z,10.97
2019-01-08T20:10:19.945Z,9.77
2019-01-08T20:12:48.993Z,10.93
2019-01-08T20:15:17.909Z,12.73
2019-01-08T20:17:46.674Z,14.03
2019-01-08T20:20:15.452Z,8.90
2019-01-08T20:22:44.311Z,12.10
2019-01-08T20:25:13.173Z,14.43
2019-01-08T20:27:41.958Z,26.60
2019-01-08T20:30:11.134Z,22.93
2019-01-08T20:32:39.898Z,40.20
2019-01-08T20:35:10.230Z,22.33
2019-01-08T20:37:39.389Z,20.33
2019-01-08T20:40:10.032Z,10.87
2019-01-08T20:42:39.310Z,16.33
2019-01-08T20:45:08.397Z,17.67
2019-01-08T20:47:37.834Z,11.77
2019-01-08T20:50:06.849Z,15.10
2019-01-08T20:52:35.637Z,17.77
2019-01-08T20:55:04.706Z,17.03
2019-01-08T20:57:33.478Z,15.90
2019-01-08T21:00:02.365Z,17.47
2019-01-08T21:02:31.145Z,21.83
2019-01-08T21:05:00.006Z,19.00
2019-01-08T21:07:28.858Z,14.70
2019-01-08T21:09:57.633Z,17.27
2019-01-08T21:12:26.484Z,22.10
2019-01-08T21:14:55.609Z,18.40
2019-01-08T21:17:24.694Z,17.70
2019-01-08T21:19:53.545Z,15.73
2019-01-08T21:22:22.394Z,13.33
2019-01-08T21:24:51.178Z,16.63
2019-01-08T21:27:20.066Z,17.87
2019-01-08T21:29:48.869Z,15.27
2019-01-08T21:32:17.885Z,19.50
2019-01-08T21:34:46.758Z,16.87
2019-01-08T21:37:15.606Z,13.70
2019-01-08T21:39:44.394Z,23.33
2019-01-08T21:42:13.170Z,17.17
2019-01-08T21:44:41.949Z,21.37
2019-01-08T21:47:10.789Z,18.77
2019-01-08T21:49:39.590Z,14.60
2019-01-08T21:52:08.448Z,11.63
2019-01-08T21:54:37.224Z,11.47
2019-01-08T21:57:06.030Z,15.60
2019-01-08T21:59:34.888Z,10.57
2019-01-08T22:02:03.818Z,16.10
2019-01-08T22:04:33.046Z,15.93
2019-01-08T22:07:01.823Z,13.70
2019-01-08T22:09:30.729Z,18.80
2019-01-08T22:11:59.694Z,16.43
2019-01-08T22:14:28.467Z,10.93
2019-01-08T22:16:57.562Z,13.47
2019-01-08T22:19:26.330Z,18.03
2019-01-08T22:21:55.856Z,14.50
2019-01-08T22:24:24.909Z,19.00
2019-01-08T22:26:53.692Z,20.67
2019-01-08T22:29:22.466Z,15.03
2019-01-08T22:31:51.325Z,15.30
2019-01-08T22:34:20.189Z,12.00
2019-01-08T22:36:49.058Z,19.60
2019-01-08T22:39:17.834Z,16.33
2019-01-08T22:41:46.765Z,16.70
2019-01-08T22:44:15.718Z,16.13
2019-01-08T22:46:44.573Z,10.13
2019-01-08T22:49:13.359Z,13.73
2019-01-08T22:51:42.156Z,20.40
2019-01-08T22:54:11.006Z,11.00
2019-01-08T22:56:39.957Z,9.07
2019-01-08T22:59:09.067Z,18.57
2019-01-08T23:01:42.941Z,11.73
2019-01-08T23:04:12.528Z,15.33
2019-01-08T23:06:41.414Z,15.07
2019-01-08T23:09:10.806Z,23.00
2019-01-08T23:11:39.677Z,16.53
2019-01-08T23:14:08.593Z,14.90
2019-01-08T23:16:37.382Z,13.17
2019-01-08T23:19:06.386Z,18.27
2019-01-08T23:21:35.319Z,13.73
2019-01-08T23:24:04.257Z,19.50
2019-01-08T23:26:33.042Z,16.83
2019-01-08T23:29:01.857Z,14.80
2019-01-08T23:31:30.777Z,16.07
2019-01-08T23:33:59.661Z,18.60
2019-01-08T23:36:28.840Z,14.70
2019-01-08T23:38:57.630Z,18.07
2019-01-08T23:41:26.475Z,16.17
2019-01-08T23:43:55.334Z,15.20
2019-01-08T23:46:24.101Z,14.83
2019-01-08T23:48:52.900Z,16.10
2019-01-08T23:51:21.853Z,16.33
2019-01-08T23:53:51.618Z,11.43
2019-01-08T23:56:20.390Z,5.23
2019-01-08T23:58:49.250Z,4.33
